Time;durP1;ratioP1;P1;durP2;ratioP2;P2;SDS_P1;SDS_P2;PMS_P1;PMS_P2;Temp;Humidity;BMP_temperature;BMP_pressure;BME280_temperature;BME280_humidity;BME280_pressure;Samples;Min_cycle;Max_cycle;Signal;HPM_P1;HPM_P2
2023/05/18 00:01:13;;;;;;;39.25;36.13;;;13.60;99.90;;;;;;5292472;28;20471;-75
2023/05/18 00:03:44;;;;;;;38.88;35.35;;;13.50;99.90;;;;;;5292249;28;20063;-81
2023/05/18 00:06:15;;;;;;;38.53;35.53;;;13.50;99.90;;;;;;5292273;28;20419;-76
2023/05/18 00:08:45;;;;;;;37.65;34.22;;;13.50;99.90;;;;;;5292114;28;20027;-80
2023/05/18 00:11:17;;;;;;;38.22;34.92;;;13.50;99.90;;;;;;5292072;28;20543;-77
2023/05/18 00:13:48;;;;;;;37.95;34.92;;;13.30;99.90;;;;;;5292432;28;20047;-73
2023/05/18 00:16:19;;;;;;;41.30;37.47;;;13.20;99.90;;;;;;5292166;28;20118;-81
2023/05/18 00:18:53;;;;;;;41.40;38.20;;;13.20;99.90;;;;;;5292438;28;20030;-80
2023/05/18 00:21:29;;;;;;;39.90;36.58;;;13.20;99.90;;;;;;5291973;28;20032;-76
2023/05/18 00:24:00;;;;;;;42.95;39.00;;;13.30;99.90;;;;;;5292140;28;20060;-77
2023/05/18 00:26:31;;;;;;;40.38;36.97;;;13.40;99.90;;;;;;5292133;28;20121;-78
2023/05/18 00:29:02;;;;;;;43.20;39.22;;;13.20;99.90;;;;;;5292079;28;20106;-81
2023/05/18 00:31:35;;;;;;;41.72;38.10;;;13.10;99.90;;;;;;5291896;28;20035;-81
2023/05/18 00:34:07;;;;;;;43.00;39.30;;;13.30;99.90;;;;;;5291993;28;20065;-82
2023/05/18 00:36:39;;;;;;;43.30;39.28;;;13.40;99.90;;;;;;5292021;28;20070;-80
2023/05/18 00:39:10;;;;;;;41.88;37.97;;;13.50;99.90;;;;;;5291914;28;20086;-77
2023/05/18 00:41:50;;;;;;;41.30;37.95;;;13.40;99.90;;;;;;5291801;28;20043;-77
2023/05/18 00:44:21;;;;;;;40.90;37.35;;;13.50;99.90;;;;;;5291429;28;20029;-77
2023/05/18 00:46:52;;;;;;;41.88;38.25;;;13.30;99.90;;;;;;5291092;28;20406;-74
2023/05/18 00:49:23;;;;;;;41.30;37.30;;;13.50;99.90;;;;;;5290961;28;20031;-79
2023/05/18 00:51:55;;;;;;;40.47;36.75;;;13.60;99.90;;;;;;5290835;28;20039;-81
2023/05/18 00:54:26;;;;;;;39.97;36.17;;;13.50;99.90;;;;;;5290978;28;20378;-80
2023/05/18 00:57:00;;;;;;;38.42;35.08;;;13.60;99.90;;;;;;5290714;28;20536;-76
2023/05/18 00:59:32;;;;;;;37.22;33.78;;;13.70;99.90;;;;;;5290900;28;20019;-75
2023/05/18 01:02:03;;;;;;;38.22;34.90;;;13.80;99.90;;;;;;5290907;28;20032;-80
2023/05/18 01:04:33;;;;;;;38.80;35.40;;;13.70;99.90;;;;;;5291007;28;20024;-76
2023/05/18 01:07:05;;;;;;;40.28;36.65;;;13.60;99.90;;;;;;5291210;28;20007;-77
2023/05/18 01:09:36;;;;;;;38.83;35.20;;;13.60;99.90;;;;;;5291530;28;20070;-76
2023/05/18 01:12:17;;;;;;;40.28;36.70;;;13.50;99.90;;;;;;5290891;28;20518;-77
2023/05/18 01:15:00;;;;;;;38.92;35.15;;;13.50;99.90;;;;;;5291064;28;20024;-75
2023/05/18 01:17:59;;;;;;;40.22;36.63;;;13.60;99.90;;;;;;5291300;28;20024;-77
2023/05/18 01:20:40;;;;;;;40.00;36.47;;;13.70;99.90;;;;;;5291143;28;20023;-80
2023/05/18 01:23:29;;;;;;;39.42;35.67;;;13.60;99.90;;;;;;5290859;28;20114;-81
2023/05/18 01:26:14;;;;;;;40.33;36.85;;;13.70;99.90;;;;;;5290583;28;20032;-77
2023/05/18 01:28:45;;;;;;;38.63;35.22;;;13.50;99.90;;;;;;5290899;28;20026;-77
2023/05/18 01:31:17;;;;;;;41.35;37.95;;;13.60;99.90;;;;;;5290569;28;20530;-73
2023/05/18 01:33:48;;;;;;;45.60;41.50;;;13.50;99.90;;;;;;5272349;28;20034;-76
2023/05/18 01:36:19;;;;;;;44.08;40.47;;;13.60;99.90;;;;;;5290729;28;20016;-76
2023/05/18 01:38:51;;;;;;;39.35;36.08;;;13.60;99.90;;;;;;5290436;28;20023;-77
2023/05/18 01:41:28;;;;;;;41.88;37.95;;;13.70;99.90;;;;;;5290171;28;20031;-77
2023/05/18 01:44:14;;;;;;;44.45;40.55;;;13.70;99.90;;;;;;5290462;28;20544;-78
2023/05/18 01:46:53;;;;;;;46.00;42.50;;;13.60;99.90;;;;;;5290854;28;20479;-80
2023/05/18 01:49:45;;;;;;;40.75;37.42;;;13.60;99.90;;;;;;5272720;28;20070;-76
2023/05/18 01:52:23;;;;;;;43.15;39.47;;;13.70;99.90;;;;;;5290619;28;20039;-77
2023/05/18 01:54:59;;;;;;;41.78;38.35;;;13.90;99.90;;;;;;5290187;28;20031;-75
2023/05/18 01:57:32;;;;;;;44.20;39.75;;;13.80;99.90;;;;;;5290322;28;20031;-78
2023/05/18 02:00:08;;;;;;;37.78;34.45;;;13.80;99.90;;;;;;5289963;28;20019;-79
2023/05/18 02:02:39;;;;;;;41.67;37.63;;;13.80;99.90;;;;;;5289729;28;20092;-75
2023/05/18 02:05:11;;;;;;;41.47;37.40;;;13.80;99.90;;;;;;5290215;28;20536;-73
2023/05/18 02:07:46;;;;;;;43.58;39.50;;;13.80;99.90;;;;;;5290059;28;20068;-74
2023/05/18 02:10:17;;;;;;;51.60;43.70;;;13.90;99.90;;;;;;5290105;28;20016;-73
2023/05/18 02:12:51;;;;;;;43.55;38.88;;;14.10;99.90;;;;;;5289262;28;20116;-77
2023/05/18 02:15:22;;;;;;;44.25;37.75;;;14.10;99.90;;;;;;5290067;28;20020;-74
2023/05/18 02:17:56;;;;;;;40.10;35.70;;;14.10;99.90;;;;;;5289892;28;20019;-75
2023/05/18 02:20:31;;;;;;;42.55;38.33;;;14.00;99.90;;;;;;5290262;28;20099;-74
2023/05/18 02:23:02;;;;;;;48.67;43.35;;;14.10;99.90;;;;;;5290021;28;20066;-73
2023/05/18 02:25:33;;;;;;;46.75;40.25;;;14.20;99.90;;;;;;5290038;28;20051;-78
2023/05/18 02:28:04;;;;;;;44.47;39.90;;;14.30;99.90;;;;;;5289853;28;20107;-81
2023/05/18 02:30:35;;;;;;;45.47;40.58;;;14.20;99.90;;;;;;5271719;28;20378;-73
2023/05/18 02:33:07;;;;;;;45.60;40.92;;;14.20;99.90;;;;;;5289644;28;20024;-79
2023/05/18 02:35:39;;;;;;;45.97;41.28;;;14.20;99.90;;;;;;5289650;28;20481;-77
2023/05/18 02:38:10;;;;;;;45.92;41.15;;;14.20;99.90;;;;;;5271312;28;20107;-79
2023/05/18 02:40:41;;;;;;;46.35;41.47;;;14.20;99.90;;;;;;5289409;28;20110;-75
2023/05/18 02:43:12;;;;;;;43.95;39.53;;;14.30;99.90;;;;;;5289314;28;20027;-80
2023/05/18 02:45:43;;;;;;;55.83;44.45;;;14.40;99.90;;;;;;5289373;28;20046;-77
2023/05/18 02:48:14;;;;;;;47.70;40.80;;;14.30;99.90;;;;;;5289462;28;20028;-75
2023/05/18 02:50:47;;;;;;;46.90;41.78;;;14.40;99.90;;;;;;5289468;28;20026;-73
2023/05/18 02:53:18;;;;;;;42.90;38.25;;;14.40;99.90;;;;;;5289266;28;20020;-75
2023/05/18 02:55:57;;;;;;;43.30;38.63;;;14.50;99.90;;;;;;5289253;28;20033;-81
2023/05/18 02:58:28;;;;;;;49.92;40.47;;;14.40;99.90;;;;;;5289312;28;20020;-74
2023/05/18 03:00:59;;;;;;;48.25;42.30;;;14.40;99.90;;;;;;5289334;28;20027;-78
2023/05/18 03:03:30;;;;;;;49.28;41.83;;;14.40;99.90;;;;;;5289309;28;20038;-74
2023/05/18 03:06:04;;;;;;;50.63;41.78;;;14.50;99.90;;;;;;5289360;28;20028;-77
2023/05/18 03:08:39;;;;;;;48.22;41.40;;;14.50;99.90;;;;;;5289113;28;20427;-74
2023/05/18 03:11:10;;;;;;;43.60;38.97;;;14.50;99.90;;;;;;5288839;28;20042;-76
2023/05/18 03:13:42;;;;;;;46.17;39.97;;;14.40;99.90;;;;;;5289156;28;20728;-80
2023/05/18 03:16:14;;;;;;;46.20;41.47;;;14.50;99.90;;;;;;5289088;28;20016;-73
2023/05/18 03:18:45;;;;;;;47.35;40.80;;;14.50;99.90;;;;;;5289003;28;20016;-74
2023/05/18 03:21:16;;;;;;;43.85;39.05;;;14.50;99.90;;;;;;5288700;28;20093;-75
2023/05/18 03:23:47;;;;;;;43.42;38.60;;;14.50;99.90;;;;;;5291050;28;20024;-77
2023/05/18 03:26:18;;;;;;;43.75;39.08;;;14.60;99.90;;;;;;5293402;28;20035;-75
2023/05/18 03:28:49;;;;;;;38.85;34.78;;;14.70;99.90;;;;;;5293158;28;20020;-74
2023/05/18 03:31:20;;;;;;;42.50;38.08;;;14.60;99.90;;;;;;5292966;28;20024;-73
2023/05/18 03:33:51;;;;;;;39.35;35.20;;;14.60;99.90;;;;;;5293057;28;20027;-74
2023/05/18 03:36:21;;;;;;;39.30;34.55;;;14.70;99.90;;;;;;5292930;28;20022;-73
2023/05/18 03:38:52;;;;;;;36.22;32.33;;;14.70;99.90;;;;;;5293212;28;20443;-73
2023/05/18 03:41:23;;;;;;;35.55;30.90;;;14.60;99.90;;;;;;5293179;28;20046;-76
2023/05/18 03:43:54;;;;;;;31.25;28.05;;;14.70;99.90;;;;;;5292767;28;20035;-77
2023/05/18 03:46:26;;;;;;;33.88;26.75;;;14.70;99.90;;;;;;5292926;28;20031;-77
2023/05/18 03:48:56;;;;;;;30.95;27.58;;;14.60;99.90;;;;;;5292863;28;20067;-80
2023/05/18 03:51:28;;;;;;;34.05;27.85;;;14.70;99.90;;;;;;5292701;28;20044;-73
2023/05/18 03:53:59;;;;;;;29.80;25.90;;;14.70;99.90;;;;;;5292748;28;20036;-73
2023/05/18 03:56:30;;;;;;;32.35;26.02;;;14.70;99.90;;;;;;5292652;28;20420;-75
2023/05/18 03:59:02;;;;;;;29.02;23.67;;;14.70;99.90;;;;;;5274804;28;20043;-73
2023/05/18 04:01:33;;;;;;;26.85;22.70;;;14.70;99.90;;;;;;5292295;28;20035;-75
2023/05/18 04:04:04;;;;;;;26.52;23.35;;;14.60;99.90;;;;;;5292366;28;20027;-74
2023/05/18 04:06:34;;;;;;;29.52;23.00;;;14.70;99.90;;;;;;5292944;28;20038;-78
2023/05/18 04:09:06;;;;;;;29.88;24.45;;;14.70;99.90;;;;;;5292479;28;20034;-74
2023/05/18 04:11:37;;;;;;;26.10;21.95;;;14.80;99.90;;;;;;5291870;28;20051;-75
2023/05/18 04:14:08;;;;;;;24.73;21.15;;;14.70;99.90;;;;;;5292230;28;20091;-79
2023/05/18 04:16:39;;;;;;;29.08;21.67;;;14.80;99.90;;;;;;5292474;28;20091;-81
2023/05/18 04:19:10;;;;;;;26.35;21.88;;;14.70;99.90;;;;;;5292082;28;20031;-79
2023/05/18 04:21:42;;;;;;;26.48;23.23;;;14.80;99.90;;;;;;5292285;28;20027;-77
2023/05/18 04:24:13;;;;;;;27.30;20.75;;;14.80;99.90;;;;;;5292113;28;20031;-73
2023/05/18 04:26:45;;;;;;;23.10;19.65;;;14.80;99.90;;;;;;5292178;28;20137;-75
2023/05/18 04:29:16;;;;;;;27.80;21.67;;;14.80;99.90;;;;;;5291980;28;20156;-79
2023/05/18 04:31:47;;;;;;;29.52;23.98;;;14.90;99.90;;;;;;5292066;28;20550;-74
2023/05/18 04:34:18;;;;;;;39.22;25.08;;;14.90;99.90;;;;;;5273244;28;20049;-81
2023/05/18 04:36:49;;;;;;;28.13;21.67;;;14.90;99.90;;;;;;5291889;28;20378;-79
2023/05/18 04:39:21;;;;;;;27.23;23.58;;;14.90;99.90;;;;;;5291974;28;20023;-80
2023/05/18 04:41:58;;;;;;;23.77;19.00;;;14.90;99.90;;;;;;5291815;28;20047;-79
2023/05/18 04:44:31;;;;;;;25.08;22.10;;;14.90;99.90;;;;;;5291627;28;20051;-80
2023/05/18 04:47:01;;;;;;;23.25;18.00;;;14.80;99.90;;;;;;5291800;28;20027;-81
2023/05/18 04:49:32;;;;;;;22.02;19.15;;;14.80;99.90;;;;;;5291833;28;20016;-74
2023/05/18 04:52:06;;;;;;;22.70;18.15;;;14.90;99.90;;;;;;5291771;28;20023;-80
2023/05/18 04:54:39;;;;;;;24.77;19.40;;;14.80;99.90;;;;;;5291327;28;20039;-77
2023/05/18 04:57:10;;;;;;;20.95;18.73;;;14.90;99.90;;;;;;5291553;28;20122;-72
2023/05/18 04:59:45;;;;;;;25.40;18.13;;;14.70;99.90;;;;;;5291681;28;20099;-75
2023/05/18 05:02:16;;;;;;;20.08;17.98;;;14.80;99.90;;;;;;5291131;28;20027;-76
2023/05/18 05:04:47;;;;;;;22.92;19.60;;;14.80;99.90;;;;;;5291193;28;20118;-74
2023/05/18 05:07:18;;;;;;;20.98;18.48;;;14.80;99.90;;;;;;5291519;28;20122;-79
2023/05/18 05:09:49;;;;;;;23.55;20.38;;;14.70;99.90;;;;;;5291493;28;20375;-75
2023/05/18 05:12:20;;;;;;;26.15;22.30;;;14.70;99.90;;;;;;5290867;28;20066;-82
2023/05/18 05:14:50;;;;;;;22.13;19.77;;;14.70;99.90;;;;;;5291295;28;20028;-77
2023/05/18 05:17:23;;;;;;;21.95;19.58;;;14.80;99.90;;;;;;5291143;28;20032;-82
2023/05/18 05:19:54;;;;;;;23.65;21.35;;;14.80;99.90;;;;;;5291213;28;20028;-76
2023/05/18 05:22:25;;;;;;;22.92;20.67;;;14.80;99.90;;;;;;5291010;28;20043;-82
2023/05/18 05:24:55;;;;;;;22.33;18.50;;;14.70;99.90;;;;;;5272852;28;20024;-78
2023/05/18 05:27:26;;;;;;;23.08;20.58;;;14.70;99.90;;;;;;5290953;28;20077;-78
2023/05/18 05:29:57;;;;;;;21.98;19.83;;;14.80;99.90;;;;;;5291144;28;20024;-82
2023/05/18 05:32:28;;;;;;;24.77;20.20;;;14.80;99.90;;;;;;5290492;28;20527;-80
2023/05/18 05:34:59;;;;;;;25.23;19.70;;;14.80;99.90;;;;;;5290537;28;20016;-81
2023/05/18 05:37:30;;;;;;;24.23;20.85;;;14.80;99.90;;;;;;5290226;28;20042;-79
2023/05/18 05:40:02;;;;;;;24.73;21.35;;;14.80;99.90;;;;;;5290350;28;20375;-78
2023/05/18 05:42:33;;;;;;;24.30;19.70;;;14.80;99.90;;;;;;5289950;28;20059;-80
2023/05/18 05:45:04;;;;;;;24.25;18.70;;;14.80;99.90;;;;;;5290194;28;20463;-75
2023/05/18 05:47:35;;;;;;;21.27;19.10;;;14.90;99.90;;;;;;5289524;28;20023;-76
2023/05/18 05:50:06;;;;;;;23.95;21.63;;;14.90;99.90;;;;;;5290101;28;20026;-77
2023/05/18 05:52:37;;;;;;;22.23;19.92;;;14.90;99.90;;;;;;5290242;28;20467;-77
2023/05/18 05:55:08;;;;;;;22.77;20.55;;;14.90;99.90;;;;;;5289224;28;20108;-78
2023/05/18 05:57:41;;;;;;;25.05;21.92;;;14.90;99.90;;;;;;5269012;28;20032;-81
2023/05/18 06:00:12;;;;;;;24.45;20.35;;;14.90;99.90;;;;;;5268781;28;20107;-80
2023/05/18 06:02:43;;;;;;;27.42;21.65;;;14.90;99.90;;;;;;5268618;28;20109;-75
2023/05/18 06:05:14;;;;;;;27.00;23.25;;;15.00;99.90;;;;;;5268865;28;20032;-81
2023/05/18 06:07:45;;;;;;;26.40;21.67;;;15.10;99.90;;;;;;5268775;28;20059;-78
2023/05/18 06:10:16;;;;;;;25.38;20.52;;;15.10;99.90;;;;;;5268669;28;20035;-80
2023/05/18 06:12:47;;;;;;;26.00;20.02;;;15.10;99.90;;;;;;5268325;28;20395;-77
2023/05/18 06:15:18;;;;;;;26.52;21.15;;;15.10;99.90;;;;;;5268554;28;20081;-75
2023/05/18 06:17:49;;;;;;;23.35;19.30;;;15.20;99.90;;;;;;5268567;28;20020;-79
2023/05/18 06:20:21;;;;;;;24.92;18.50;;;15.20;99.90;;;;;;5268683;28;20074;-76
2023/05/18 06:22:52;;;;;;;22.33;18.45;;;15.20;99.90;;;;;;5268395;28;20454;-77
2023/05/18 06:25:23;;;;;;;25.95;19.85;;;15.10;99.90;;;;;;5268267;28;20059;-78
2023/05/18 06:27:54;;;;;;;24.98;19.90;;;15.10;99.90;;;;;;5268612;28;20024;-80
2023/05/18 06:30:25;;;;;;;28.40;20.02;;;15.10;99.90;;;;;;5268247;28;20026;-78
2023/05/18 06:32:56;;;;;;;28.67;20.50;;;15.00;99.90;;;;;;5268104;28;20028;-80
2023/05/18 06:35:27;;;;;;;26.65;20.67;;;15.10;99.90;;;;;;5268268;28;20028;-80
2023/05/18 06:37:57;;;;;;;26.27;19.50;;;15.00;99.90;;;;;;5268405;28;20020;-79
2023/05/18 06:40:28;;;;;;;25.83;18.30;;;15.10;99.90;;;;;;5268410;28;20024;-77
2023/05/18 06:42:59;;;;;;;26.02;20.77;;;15.10;99.90;;;;;;5268065;28;20551;-75
2023/05/18 06:45:30;;;;;;;23.38;20.92;;;15.10;99.90;;;;;;5268064;28;20418;-75
2023/05/18 06:48:01;;;;;;;29.35;20.42;;;15.10;99.90;;;;;;5268156;28;20085;-75
2023/05/18 06:50:32;;;;;;;26.42;18.77;;;15.30;99.90;;;;;;5268118;28;20027;-80
2023/05/18 06:53:03;;;;;;;26.27;21.23;;;15.40;99.90;;;;;;5268289;28;20024;-77
2023/05/18 06:55:34;;;;;;;28.88;19.52;;;15.40;99.90;;;;;;5267873;28;20032;-77
2023/05/18 06:58:05;;;;;;;30.83;21.52;;;15.40;99.90;;;;;;5267743;28;20090;-80
2023/05/18 07:00:36;;;;;;;30.05;21.83;;;15.30;99.90;;;;;;5268105;28;20064;-76
2023/05/18 07:03:07;;;;;;;33.20;22.73;;;15.30;99.90;;;;;;5267968;28;20032;-81
2023/05/18 07:05:38;;;;;;;29.45;21.33;;;15.40;99.90;;;;;;5268179;28;20647;-78
2023/05/18 07:08:09;;;;;;;35.22;23.05;;;15.30;99.90;;;;;;5268000;28;20077;-77
2023/05/18 07:10:40;;;;;;;26.95;20.42;;;15.30;99.90;;;;;;5268022;28;20020;-80
2023/05/18 07:13:11;;;;;;;29.77;20.05;;;15.30;99.90;;;;;;5267592;28;20055;-80
2023/05/18 07:15:42;;;;;;;27.17;21.42;;;15.40;99.90;;;;;;5267828;28;20016;-80
2023/05/18 07:18:12;;;;;;;30.92;21.70;;;15.40;99.90;;;;;;5267753;28;20072;-80
2023/05/18 07:20:43;;;;;;;30.13;20.80;;;15.40;99.90;;;;;;5267644;28;20567;-80
2023/05/18 07:23:14;;;;;;;26.45;20.85;;;15.40;99.90;;;;;;5267437;28;20036;-76
2023/05/18 07:25:45;;;;;;;30.52;22.50;;;15.40;99.90;;;;;;5250045;28;20012;-78
2023/05/18 07:28:16;;;;;;;28.23;21.60;;;15.40;99.90;;;;;;5267508;28;20036;-75
2023/05/18 07:33:27;;;;;;;28.63;22.40;;;15.30;99.90;;;;;;5450209;23;20069;-78
2023/05/18 07:35:58;;;;;;;27.50;20.30;;;15.50;99.90;;;;;;5144467;28;20035;-74
2023/05/18 07:38:29;;;;;;;29.02;20.80;;;15.60;99.90;;;;;;5144632;28;20495;-74
2023/05/18 07:41:00;;;;;;;27.00;19.70;;;15.80;99.90;;;;;;5143379;28;20026;-75
2023/05/18 07:43:31;;;;;;;29.52;21.20;;;15.90;99.90;;;;;;5144513;28;20031;-74
2023/05/18 07:46:01;;;;;;;26.17;18.25;;;16.00;99.90;;;;;;5144498;28;20077;-75
2023/05/18 07:48:32;;;;;;;23.75;17.98;;;16.00;99.90;;;;;;5144531;28;20027;-77
2023/05/18 07:51:03;;;;;;;21.58;17.15;;;16.00;99.90;;;;;;5144593;28;20027;-76
2023/05/18 07:53:34;;;;;;;21.27;17.25;;;16.10;99.90;;;;;;5144342;28;20098;-75
2023/05/18 07:56:07;;;;;;;19.70;15.90;;;16.20;99.90;;;;;;5144455;28;20035;-77
2023/05/18 07:58:39;;;;;;;23.15;15.15;;;16.10;99.90;;;;;;5144291;28;20023;-77
2023/05/18 08:01:10;;;;;;;24.95;17.80;;;16.20;99.90;;;;;;5144482;28;20030;-76
2023/05/18 08:03:41;;;;;;;21.38;18.67;;;16.30;99.90;;;;;;5144002;28;20439;-78
2023/05/18 08:06:12;;;;;;;21.13;18.73;;;16.30;99.90;;;;;;5144606;28;20037;-78
2023/05/18 08:08:43;;;;;;;23.55;21.10;;;16.50;99.90;;;;;;5144778;28;20077;-77
2023/05/18 08:11:14;;;;;;;21.05;18.85;;;16.50;99.90;;;;;;5148091;28;20037;-78
2023/05/18 08:13:45;;;;;;;19.40;16.13;;;16.50;99.90;;;;;;5147913;28;20058;-74
2023/05/18 08:16:16;;;;;;;19.92;16.70;;;16.70;99.90;;;;;;5147965;28;20407;-73
2023/05/18 08:18:46;;;;;;;19.38;17.48;;;16.80;99.90;;;;;;5148156;28;20035;-76
2023/05/18 08:21:17;;;;;;;20.05;17.98;;;16.60;99.90;;;;;;5147914;28;20046;-78
2023/05/18 08:23:48;;;;;;;21.52;18.95;;;16.60;99.90;;;;;;5147608;28;20809;-76
2023/05/18 08:26:19;;;;;;;21.58;19.40;;;16.70;99.90;;;;;;5147863;28;20031;-78
2023/05/18 08:28:50;;;;;;;22.58;17.02;;;16.60;99.90;;;;;;5147616;28;20027;-77
2023/05/18 08:31:21;;;;;;;20.10;17.95;;;16.60;99.90;;;;;;5147794;28;20031;-78
2023/05/18 08:33:51;;;;;;;21.73;19.20;;;16.70;99.90;;;;;;5147148;28;20058;-74
2023/05/18 08:36:22;;;;;;;22.67;17.83;;;16.70;99.90;;;;;;5147818;28;20542;-78
2023/05/18 08:38:53;;;;;;;21.73;19.33;;;16.60;99.90;;;;;;5147600;28;20051;-78
2023/05/18 08:41:30;;;;;;;29.60;21.02;;;16.40;99.90;;;;;;5147415;28;20041;-74
2023/05/18 08:44:25;;;;;;;21.17;18.98;;;16.40;99.90;;;;;;5147400;28;20046;-77
2023/05/18 08:46:56;;;;;;;23.17;20.20;;;16.50;99.90;;;;;;5147438;28;20030;-78
2023/05/18 08:49:28;;;;;;;25.23;19.23;;;16.50;99.90;;;;;;5147328;28;20390;-73
2023/05/18 08:52:03;;;;;;;27.92;20.80;;;16.40;99.90;;;;;;5147211;28;20035;-78
2023/05/18 08:54:36;;;;;;;27.48;21.20;;;16.40;99.90;;;;;;5147268;28;20054;-78
2023/05/18 08:57:08;;;;;;;23.20;20.60;;;16.60;99.90;;;;;;5147074;28;20426;-78
2023/05/18 08:59:42;;;;;;;28.25;21.55;;;16.70;99.90;;;;;;5147077;28;20038;-78
2023/05/18 09:02:13;;;;;;;24.83;21.23;;;16.70;99.90;;;;;;5146715;28;20402;-76
2023/05/18 09:04:45;;;;;;;25.45;22.27;;;16.70;99.90;;;;;;5146835;28;20081;-75
2023/05/18 09:07:16;;;;;;;31.08;22.02;;;16.70;99.90;;;;;;5147146;28;20027;-77
2023/05/18 09:09:48;;;;;;;25.52;22.35;;;16.50;99.90;;;;;;5147107;28;20122;-75
2023/05/18 09:12:21;;;;;;;25.30;22.65;;;16.80;99.90;;;;;;5146832;28;20018;-76
2023/05/18 09:14:53;;;;;;;26.38;23.73;;;16.70;99.90;;;;;;5146879;28;20039;-78
2023/05/18 09:17:24;;;;;;;28.05;23.23;;;16.50;99.90;;;;;;5147051;28;20017;-75
2023/05/18 09:19:55;;;;;;;30.38;24.50;;;16.30;99.90;;;;;;5146746;28;20114;-77
2023/05/18 09:22:26;;;;;;;27.20;23.83;;;16.50;99.90;;;;;;5146497;28;20043;-77
2023/05/18 09:24:58;;;;;;;24.45;21.83;;;16.40;99.90;;;;;;5146885;28;20046;-77
2023/05/18 09:27:29;;;;;;;27.42;23.05;;;16.60;99.90;;;;;;5146606;28;20031;-78
2023/05/18 09:30:00;;;;;;;27.38;23.17;;;16.60;99.90;;;;;;5146810;28;20412;-78
2023/05/18 09:32:35;;;;;;;25.92;23.15;;;16.60;99.90;;;;;;5146109;28;20129;-77
2023/05/18 09:35:07;;;;;;;25.13;22.45;;;16.50;99.90;;;;;;5146368;28;20450;-76
2023/05/18 09:37:40;;;;;;;30.20;22.02;;;16.60;99.90;;;;;;5146535;28;20007;-76
2023/05/18 09:40:15;;;;;;;28.83;24.08;;;16.80;99.90;;;;;;5146385;28;20077;-78
2023/05/18 09:42:47;;;;;;;25.90;23.20;;;17.00;99.90;;;;;;5146183;28;20035;-78
2023/05/18 09:45:25;;;;;;;24.20;21.77;;;17.00;99.90;;;;;;5146207;28;20113;-73
2023/05/18 09:47:56;;;;;;;25.00;22.42;;;17.20;99.90;;;;;;5146139;28;20035;-78
2023/05/18 09:50:27;;;;;;;24.60;22.13;;;17.20;99.90;;;;;;5146013;28;20029;-77
2023/05/18 09:52:59;;;;;;;28.77;21.77;;;17.10;99.90;;;;;;5145874;28;20042;-77
2023/05/18 09:55:30;;;;;;;24.30;21.83;;;16.80;99.90;;;;;;5145859;28;20098;-73
2023/05/18 09:58:03;;;;;;;24.17;21.73;;;16.90;99.90;;;;;;5146203;28;20094;-73
2023/05/18 10:00:40;;;;;;;22.25;19.73;;;17.00;99.90;;;;;;5146023;28;20026;-78
2023/05/18 10:03:22;;;;;;;26.30;23.08;;;16.80;99.90;;;;;;5144604;28;20521;-78
2023/05/18 10:05:53;;;;;;;28.40;22.60;;;16.80;99.90;;;;;;5145755;28;20435;-77
2023/05/18 10:08:24;;;;;;;25.92;21.10;;;16.70;99.90;;;;;;5145956;28;20069;-77
2023/05/18 10:10:55;;;;;;;25.48;22.67;;;16.50;99.90;;;;;;5145735;28;20030;-78
2023/05/18 10:13:30;;;;;;;26.25;23.60;;;16.70;99.90;;;;;;5145982;28;20533;-74
2023/05/18 10:16:04;;;;;;;26.15;23.60;;;16.70;99.90;;;;;;5145579;28;20387;-74
2023/05/18 10:18:36;;;;;;;24.42;21.83;;;16.80;99.90;;;;;;5145616;28;20035;-78
2023/05/18 10:21:07;;;;;;;24.73;22.20;;;16.90;99.90;;;;;;5145566;28;20019;-77
2023/05/18 10:23:39;;;;;;;22.67;20.67;;;16.80;99.90;;;;;;5145388;28;20046;-78
2023/05/18 10:26:11;;;;;;;33.20;24.73;;;16.80;99.90;;;;;;5145448;28;20106;-77
2023/05/18 10:28:46;;;;;;;29.88;26.75;;;17.00;99.90;;;;;;5145365;28;20515;-77
2023/05/18 10:31:18;;;;;;;25.15;22.55;;;17.00;99.90;;;;;;5145402;28;20508;-74
2023/05/18 10:33:51;;;;;;;24.70;22.13;;;16.90;99.90;;;;;;5144935;28;20098;-75
2023/05/18 10:36:24;;;;;;;26.30;23.63;;;16.90;99.90;;;;;;5145117;28;20026;-75
2023/05/18 10:38:58;;;;;;;24.00;21.65;;;16.80;99.90;;;;;;5145224;28;20058;-73
2023/05/18 10:41:31;;;;;;;27.27;24.27;;;16.70;99.90;;;;;;5145186;28;20085;-74
2023/05/18 10:44:02;;;;;;;26.52;23.70;;;16.70;99.90;;;;;;5145080;28;20101;-78
2023/05/18 10:46:35;;;;;;;27.58;24.73;;;16.80;99.90;;;;;;5145039;28;20034;-78
2023/05/18 10:49:12;;;;;;;25.58;23.08;;;16.60;99.90;;;;;;5144770;28;20031;-78
2023/05/18 10:51:45;;;;;;;25.05;22.52;;;16.60;99.90;;;;;;5145098;28;20042;-73
2023/05/18 10:54:16;;;;;;;25.33;22.73;;;16.60;99.90;;;;;;5145021;28;20031;-74
2023/05/18 10:56:50;;;;;;;23.95;21.50;;;16.60;99.90;;;;;;5145271;28;20022;-75
2023/05/18 10:59:22;;;;;;;25.77;22.85;;;16.70;99.90;;;;;;5144830;28;20023;-79
2023/05/18 11:01:54;;;;;;;22.98;20.90;;;16.80;99.90;;;;;;5144800;28;20118;-79
2023/05/18 11:04:26;;;;;;;22.98;20.73;;;16.70;99.90;;;;;;5145008;28;20031;-78
2023/05/18 11:06:58;;;;;;;25.70;22.58;;;16.70;99.90;;;;;;5144976;28;20109;-77
2023/05/18 11:09:29;;;;;;;22.65;20.48;;;16.60;99.90;;;;;;5144920;28;20081;-74
2023/05/18 11:12:00;;;;;;;24.25;21.67;;;16.50;99.90;;;;;;5144768;28;20066;-74
2023/05/18 11:14:31;;;;;;;24.67;21.48;;;16.40;99.90;;;;;;5144570;28;20022;-77
2023/05/18 11:17:24;;;;;;;25.63;23.27;;;16.50;99.90;;;;;;5144821;28;20035;-77
2023/05/18 11:20:07;;;;;;;28.70;23.05;;;16.50;99.90;;;;;;5144337;28;20463;-77
2023/05/18 11:22:58;;;;;;;24.73;22.27;;;16.30;99.90;;;;;;5144538;28;20038;-78
2023/05/18 11:25:32;;;;;;;24.42;22.02;;;16.40;99.90;;;;;;5144795;28;20042;-77
2023/05/18 11:28:06;;;;;;;23.70;21.33;;;16.40;99.90;;;;;;5144620;28;20078;-75
2023/05/18 11:30:39;;;;;;;23.60;20.55;;;16.50;99.90;;;;;;5145009;28;20027;-78
2023/05/18 11:33:14;;;;;;;22.05;19.85;;;16.30;99.90;;;;;;5144638;28;20403;-75
2023/05/18 11:35:57;;;;;;;21.27;19.15;;;16.40;99.90;;;;;;5144910;28;20128;-77
2023/05/18 11:38:54;;;;;;;21.27;19.33;;;16.30;99.90;;;;;;5144651;28;20030;-76
2023/05/18 11:41:30;;;;;;;22.55;20.40;;;16.20;99.90;;;;;;5144632;28;20388;-77
2023/05/18 11:44:20;;;;;;;24.73;21.80;;;16.20;99.90;;;;;;5145737;28;20023;-76
2023/05/18 11:46:52;;;;;;;23.92;21.30;;;16.10;99.90;;;;;;5147386;28;20027;-78
2023/05/18 11:49:27;;;;;;;24.15;21.98;;;16.20;99.90;;;;;;5148374;28;20063;-75
2023/05/18 11:52:01;;;;;;;23.27;21.02;;;16.20;99.90;;;;;;5148233;28;20589;-72
2023/05/18 11:54:45;;;;;;;22.67;20.35;;;16.00;99.90;;;;;;5148242;28;20073;-77
2023/05/18 11:57:17;;;;;;;22.92;20.73;;;16.10;99.90;;;;;;5148352;28;20041;-72
2023/05/18 11:59:54;;;;;;;21.98;19.60;;;16.10;99.90;;;;;;5146938;28;20518;-73
2023/05/18 12:02:30;;;;;;;22.67;20.52;;;16.00;99.90;;;;;;5148117;28;20050;-75
2023/05/18 12:05:06;;;;;;;22.77;20.85;;;16.00;99.90;;;;;;5148098;28;20027;-73
2023/05/18 12:07:39;;;;;;;23.40;21.00;;;16.00;99.90;;;;;;5148015;28;20084;-77
2023/05/18 12:10:11;;;;;;;23.52;19.52;;;15.90;99.90;;;;;;5147933;28;20150;-78
2023/05/18 12:12:46;;;;;;;22.73;20.33;;;15.90;99.90;;;;;;5147884;28;20034;-77
2023/05/18 12:15:21;;;;;;;21.77;19.70;;;15.80;99.90;;;;;;5147852;28;20383;-78
2023/05/18 12:17:52;;;;;;;22.55;20.17;;;15.80;99.90;;;;;;5148111;28;20352;-76
2023/05/18 12:20:29;;;;;;;24.27;21.77;;;15.90;99.90;;;;;;5147649;28;20027;-74
2023/05/18 12:23:00;;;;;;;22.70;20.50;;;15.90;99.90;;;;;;5147771;28;20078;-76
2023/05/18 12:25:31;;;;;;;23.15;20.83;;;15.80;99.90;;;;;;5147709;28;20030;-78
2023/05/18 12:28:03;;;;;;;25.88;19.83;;;15.80;99.90;;;;;;5147550;28;20038;-75
2023/05/18 12:30:35;;;;;;;22.05;19.75;;;15.90;99.90;;;;;;5147498;28;20088;-75
2023/05/18 12:33:06;;;;;;;21.52;19.35;;;15.80;99.90;;;;;;5146847;28;20043;-75
2023/05/18 12:35:37;;;;;;;21.90;19.75;;;15.70;99.90;;;;;;5147045;28;20027;-73
2023/05/18 12:38:08;;;;;;;21.92;17.80;;;15.80;99.90;;;;;;5147551;28;20030;-77
2023/05/18 12:40:45;;;;;;;23.52;19.27;;;15.80;99.90;;;;;;5147283;28;20035;-77
2023/05/18 12:43:16;;;;;;;19.45;17.70;;;15.90;99.90;;;;;;5146866;28;20035;-78
2023/05/18 12:45:47;;;;;;;21.23;19.02;;;15.90;99.90;;;;;;5147173;28;20049;-78
2023/05/18 12:48:18;;;;;;;20.13;18.15;;;16.00;99.90;;;;;;5147304;28;20074;-77
2023/05/18 12:50:50;;;;;;;20.70;18.58;;;15.90;99.90;;;;;;5146122;28;20090;-77
2023/05/18 12:53:22;;;;;;;25.60;19.58;;;16.00;99.90;;;;;;5147047;28;20029;-77
2023/05/18 12:55:58;;;;;;;21.02;18.90;;;16.00;99.90;;;;;;5147028;28;20026;-72
2023/05/18 12:58:29;;;;;;;22.48;19.67;;;16.00;99.90;;;;;;5147272;28;20022;-76